Time;durP1;ratioP1;P1;durP2;ratioP2;P2;SDS_P1;SDS_P2;PMS_P1;PMS_P2;Temp;Humidity;BMP_temperature;BMP_pressure;BME280_temperature;BME280_humidity;BME280_pressure;Samples;Min_cycle;Max_cycle;Signal;HPM_P1;HPM_P2
2021/01/20 00:02:00;;;;;;;2.90;2.70;;;7.00;1.00;;;;;;4987227;28;20780;-64
2021/01/20 00:04:25;;;;;;;2.67;2.53;;;7.00;1.00;;;;;;4988427;28;20184;-64
2021/01/20 00:06:51;;;;;;;3.00;2.80;;;7.00;1.00;;;;;;4989553;28;20185;-63
2021/01/20 00:09:17;;;;;;;2.90;2.70;;;7.00;1.00;;;;;;4988762;28;20194;-64
2021/01/20 00:11:43;;;;;;;2.80;2.60;;;7.00;1.00;;;;;;4987311;28;20291;-65
2021/01/20 00:14:13;;;;;;;2.83;2.63;;;7.00;1.00;;;;;;4988157;28;20328;-64
2021/01/20 00:16:38;;;;;;;2.90;2.70;;;6.90;1.00;;;;;;4986884;28;20207;-64
2021/01/20 00:19:04;;;;;;;3.70;3.40;;;6.80;1.00;;;;;;4988864;28;20189;-65
2021/01/20 00:21:30;;;;;;;3.40;3.10;;;6.90;1.00;;;;;;4987929;28;20708;-64
2021/01/20 00:23:55;;;;;;;2.80;2.60;;;6.90;1.00;;;;;;4989277;28;20190;-64
2021/01/20 00:26:21;;;;;;;2.80;2.60;;;7.00;1.00;;;;;;4988888;28;20199;-64
2021/01/20 00:28:48;;;;;;;3.03;2.73;;;6.90;1.00;;;;;;4988410;28;20291;-64
2021/01/20 00:31:13;;;;;;;2.65;2.45;;;6.90;1.00;;;;;;4988642;28;20212;-64
2021/01/20 00:33:39;;;;;;;3.40;3.10;;;6.90;1.00;;;;;;4988886;28;20183;-64
2021/01/20 00:36:05;;;;;;;2.80;2.60;;;6.90;1.00;;;;;;4987406;28;20185;-64
2021/01/20 00:38:31;;;;;;;2.70;2.40;;;6.90;1.00;;;;;;4988516;28;20214;-64
2021/01/20 00:40:56;;;;;;;2.60;2.40;;;6.90;1.00;;;;;;4989418;28;20325;-64
2021/01/20 00:43:22;;;;;;;2.70;2.50;;;6.90;1.00;;;;;;4988815;28;20190;-64
2021/01/20 00:45:48;;;;;;;2.70;2.50;;;6.80;1.00;;;;;;4987727;28;20186;-64
2021/01/20 00:48:13;;;;;;;2.80;2.60;;;6.80;1.00;;;;;;4987652;28;20782;-66
2021/01/20 00:50:39;;;;;;;2.33;2.23;;;6.70;1.00;;;;;;4988314;28;20207;-64
2021/01/20 00:53:04;;;;;;;2.50;2.30;;;6.60;1.00;;;;;;4985346;28;20668;-63
2021/01/20 00:55:30;;;;;;;2.93;2.73;;;6.60;1.00;;;;;;4984103;28;20196;-64
2021/01/20 00:57:56;;;;;;;2.80;2.60;;;6.50;1.00;;;;;;4989136;28;20772;-65
2021/01/20 01:00:22;;;;;;;2.70;2.50;;;6.40;1.00;;;;;;4988080;28;20269;-64
2021/01/20 01:02:49;;;;;;;3.05;2.80;;;6.30;1.00;;;;;;4988147;28;20179;-64
2021/01/20 01:05:15;;;;;;;2.95;2.75;;;6.10;1.00;;;;;;4986558;28;20191;-65
2021/01/20 01:07:41;;;;;;;3.10;2.90;;;6.10;6.40;;;;;;4992233;28;20190;-64
2021/01/20 01:10:07;;;;;;;3.60;3.30;;;5.90;7.00;;;;;;4992054;28;20435;-66
2021/01/20 01:12:32;;;;;;;3.00;2.80;;;5.90;13.30;;;;;;4985082;28;20243;-64
2021/01/20 01:14:58;;;;;;;2.77;2.57;;;5.80;15.30;;;;;;4992476;28;20548;-64
2021/01/20 01:17:24;;;;;;;3.17;2.87;;;5.70;18.50;;;;;;4991355;28;20215;-64
2021/01/20 01:19:49;;;;;;;2.80;2.60;;;5.50;20.40;;;;;;4992057;28;20184;-64
2021/01/20 01:22:15;;;;;;;3.40;3.10;;;5.40;28.90;;;;;;4991972;28;20182;-64
2021/01/20 01:24:41;;;;;;;3.50;3.20;;;5.50;28.70;;;;;;5021391;28;20204;-64
2021/01/20 01:27:07;;;;;;;3.70;3.40;;;5.40;31.70;;;;;;4992084;28;20188;-64
2021/01/20 01:29:32;;;;;;;3.03;2.80;;;5.30;31.10;;;;;;4990769;28;20212;-64
2021/01/20 01:31:58;;;;;;;3.00;2.80;;;5.20;41.00;;;;;;4991730;28;20470;-64
2021/01/20 01:34:23;;;;;;;3.57;3.27;;;5.10;45.60;;;;;;4991254;28;20191;-64
2021/01/20 01:36:49;;;;;;;3.77;3.47;;;5.10;50.20;;;;;;4989386;28;20272;-64
2021/01/20 01:39:15;;;;;;;3.70;3.40;;;5.10;48.50;;;;;;4991180;28;20180;-65
2021/01/20 01:41:41;;;;;;;3.67;3.37;;;5.00;45.90;;;;;;4990018;28;20231;-64
2021/01/20 01:44:07;;;;;;;4.85;3.40;;;5.00;47.00;;;;;;4989154;28;20206;-64
2021/01/20 01:46:33;;;;;;;3.80;3.40;;;4.90;47.50;;;;;;4990196;28;20722;-64
2021/01/20 01:48:59;;;;;;;3.90;3.50;;;4.90;52.00;;;;;;4991329;28;21266;-65
2021/01/20 01:51:26;;;;;;;3.23;2.97;;;4.90;52.40;;;;;;4992511;28;20207;-64
2021/01/20 01:53:53;;;;;;;3.70;3.40;;;4.80;54.70;;;;;;4989105;28;20515;-64
2021/01/20 01:56:19;;;;;;;3.63;3.33;;;4.80;59.70;;;;;;4990928;28;20274;-64
2021/01/20 01:58:50;;;;;;;3.92;3.53;;;4.70;65.70;;;;;;4992409;28;20191;-64
2021/01/20 02:01:16;;;;;;;4.15;3.75;;;4.70;71.60;;;;;;4991511;28;20184;-64
2021/01/20 02:03:42;;;;;;;4.20;3.90;;;4.60;65.90;;;;;;4989793;28;20180;-64
2021/01/20 02:06:08;;;;;;;3.95;3.65;;;4.50;69.50;;;;;;4991535;28;20250;-64
2021/01/20 02:08:34;;;;;;;4.10;3.70;;;4.40;71.50;;;;;;4991594;28;20208;-64
2021/01/20 02:11:18;;;;;;;3.80;3.50;;;4.30;72.20;;;;;;4989463;28;20234;-63
2021/01/20 02:13:57;;;;;;;3.92;3.58;;;4.20;87.50;;;;;;4982746;28;20215;-63
2021/01/20 02:16:25;;;;;;;4.35;3.95;;;4.10;96.10;;;;;;4990607;28;20183;-63
2021/01/20 02:18:53;;;;;;;4.13;3.63;;;4.00;98.80;;;;;;4989173;28;20744;-63
2021/01/20 02:21:33;;;;;;;4.05;3.65;;;3.90;99.90;;;;;;4991937;28;20267;-64
2021/01/20 02:24:03;;;;;;;4.80;4.35;;;3.90;99.90;;;;;;4988997;28;20295;-64
2021/01/20 02:27:06;;;;;;;4.68;4.20;;;4.00;99.90;;;;;;4989401;28;20192;-64
2021/01/20 02:30:05;;;;;;;4.40;3.58;;;4.00;99.90;;;;;;4991502;28;20573;-64
2021/01/20 02:32:32;;;;;;;4.60;4.10;;;3.90;99.90;;;;;;4990682;28;20195;-64
2021/01/20 02:34:59;;;;;;;3.83;3.53;;;3.90;99.90;;;;;;4990450;28;20203;-63
2021/01/20 02:37:26;;;;;;;4.57;4.18;;;3.90;99.90;;;;;;4990420;28;20238;-64
2021/01/20 02:39:53;;;;;;;4.40;4.00;;;3.90;99.90;;;;;;4989960;28;20228;-64
2021/01/20 02:42:18;;;;;;;4.75;4.25;;;3.90;99.90;;;;;;4989623;28;20184;-63
2021/01/20 02:44:44;;;;;;;4.63;4.23;;;3.90;99.90;;;;;;4990017;28;20202;-64
2021/01/20 02:47:10;;;;;;;4.17;3.77;;;3.90;99.90;;;;;;4988459;28;20184;-64
2021/01/20 02:49:37;;;;;;;4.82;4.32;;;3.90;99.90;;;;;;4988436;28;20191;-64
2021/01/20 02:52:06;;;;;;;5.07;4.57;;;3.90;99.90;;;;;;4990645;28;20211;-67
2021/01/20 02:54:33;;;;;;;4.05;3.65;;;3.80;99.90;;;;;;4990416;28;20183;-64
2021/01/20 02:57:01;;;;;;;4.53;4.10;;;3.90;99.90;;;;;;4989941;28;20186;-64
2021/01/20 02:59:29;;;;;;;4.78;4.38;;;3.90;99.90;;;;;;4989545;28;20183;-66
2021/01/20 03:01:58;;;;;;;4.63;4.00;;;3.90;99.90;;;;;;4990339;28;20282;-64
2021/01/20 03:04:25;;;;;;;5.95;4.30;;;3.90;99.90;;;;;;4990486;28;20686;-64
2021/01/20 03:06:54;;;;;;;5.00;4.53;;;3.90;99.90;;;;;;4987701;28;20187;-65
2021/01/20 03:09:20;;;;;;;5.43;4.93;;;3.90;99.90;;;;;;4989719;28;20195;-64
2021/01/20 03:11:48;;;;;;;5.00;4.50;;;3.90;99.90;;;;;;4989226;28;20200;-64
2021/01/20 03:14:16;;;;;;;5.53;4.82;;;3.90;99.90;;;;;;4985009;28;20196;-64
2021/01/20 03:16:42;;;;;;;4.45;4.05;;;3.90;99.90;;;;;;4989396;28;20183;-65
2021/01/20 03:19:08;;;;;;;5.83;5.23;;;3.90;99.90;;;;;;4987880;28;20188;-64
2021/01/20 03:21:33;;;;;;;5.20;4.70;;;3.80;99.90;;;;;;4977618;28;20179;-65
2021/01/20 03:23:59;;;;;;;6.20;4.50;;;3.80;99.90;;;;;;4989206;28;20265;-64
2021/01/20 03:26:25;;;;;;;5.70;4.70;;;3.70;99.90;;;;;;4988607;28;20469;-64
2021/01/20 03:28:50;;;;;;;5.20;4.70;;;3.70;99.90;;;;;;4989131;28;20226;-64
2021/01/20 03:31:16;;;;;;;5.67;4.70;;;3.70;99.90;;;;;;4987021;28;20218;-64
2021/01/20 03:33:41;;;;;;;6.40;5.23;;;3.60;99.90;;;;;;4989692;28;20208;-65
2021/01/20 03:36:07;;;;;;;5.30;4.70;;;3.70;99.90;;;;;;4988885;28;20775;-64
2021/01/20 03:38:33;;;;;;;5.37;4.50;;;3.60;99.90;;;;;;4990311;28;20683;-64
2021/01/20 03:40:59;;;;;;;5.30;4.37;;;3.60;99.90;;;;;;4989378;28;20402;-64
2021/01/20 03:43:24;;;;;;;4.40;4.00;;;3.70;99.90;;;;;;4987999;28;20447;-64
2021/01/20 03:45:50;;;;;;;4.83;4.33;;;3.70;95.00;;;;;;4989183;28;20827;-64
2021/01/20 03:48:15;;;;;;;3.50;3.07;;;3.80;91.50;;;;;;4986827;28;20183;-64
2021/01/20 03:50:41;;;;;;;4.33;3.30;;;3.90;79.30;;;;;;4989322;28;20774;-65
2021/01/20 03:53:06;;;;;;;3.97;3.57;;;4.00;71.80;;;;;;4988798;28;20180;-64
2021/01/20 03:55:32;;;;;;;4.07;3.57;;;4.00;68.40;;;;;;4986757;28;20179;-64
2021/01/20 03:57:58;;;;;;;5.40;4.17;;;4.10;59.00;;;;;;4990228;28;20188;-64
2021/01/20 04:00:23;;;;;;;4.43;4.03;;;4.10;58.70;;;;;;4987116;28;20177;-64
2021/01/20 04:02:49;;;;;;;5.20;4.70;;;4.10;58.30;;;;;;4986289;28;20186;-64
2021/01/20 04:05:14;;;;;;;5.93;4.40;;;4.00;58.20;;;;;;4986951;28;20188;-65
2021/01/20 04:07:40;;;;;;;4.70;4.17;;;4.00;57.50;;;;;;4988558;28;20495;-64
2021/01/20 04:10:07;;;;;;;6.50;4.70;;;3.90;61.40;;;;;;4988076;28;20201;-64
2021/01/20 04:12:37;;;;;;;5.72;4.93;;;3.90;62.60;;;;;;4982832;28;20273;-64
2021/01/20 04:15:05;;;;;;;6.88;5.28;;;3.70;65.20;;;;;;4989362;28;20180;-64
2021/01/20 04:17:30;;;;;;;5.80;5.30;;;3.70;75.40;;;;;;4987024;28;20218;-64
2021/01/20 04:19:56;;;;;;;6.50;5.33;;;3.60;79.70;;;;;;4988428;28;20215;-64
2021/01/20 04:22:22;;;;;;;7.23;5.77;;;3.50;86.30;;;;;;4988209;28;20259;-64
2021/01/20 04:24:48;;;;;;;5.70;4.97;;;3.40;88.30;;;;;;4987536;28;20199;-64
2021/01/20 04:27:14;;;;;;;6.30;5.23;;;3.40;91.50;;;;;;4987567;28;20198;-64
2021/01/20 04:29:39;;;;;;;5.20;4.47;;;3.40;93.70;;;;;;4987271;28;21020;-64
2021/01/20 04:32:05;;;;;;;6.53;5.80;;;3.30;94.80;;;;;;4985797;28;20281;-63
2021/01/20 04:34:31;;;;;;;6.80;5.77;;;3.30;95.80;;;;;;4988659;28;20605;-63
2021/01/20 04:36:56;;;;;;;5.13;4.50;;;3.30;95.50;;;;;;4989078;28;20186;-64
2021/01/20 04:39:22;;;;;;;7.63;6.00;;;3.30;95.40;;;;;;4986068;28;20193;-63
2021/01/20 04:41:48;;;;;;;7.20;5.77;;;3.30;95.70;;;;;;4987588;28;20712;-63
2021/01/20 04:44:13;;;;;;;5.90;5.30;;;3.30;96.20;;;;;;4988873;28;20210;-64
2021/01/20 04:46:41;;;;;;;7.30;6.03;;;3.30;97.40;;;;;;4988148;28;20210;-63
2021/01/20 04:49:09;;;;;;;7.00;5.85;;;3.20;99.30;;;;;;4988102;28;20187;-64
2021/01/20 04:51:39;;;;;;;6.90;6.20;;;3.30;97.90;;;;;;4988271;28;20564;-64
2021/01/20 04:54:07;;;;;;;7.13;6.43;;;3.20;98.80;;;;;;4989065;28;20268;-63
2021/01/20 04:56:33;;;;;;;8.00;6.85;;;3.20;99.90;;;;;;4987411;28;20203;-65
2021/01/20 04:58:59;;;;;;;9.50;8.33;;;3.20;99.90;;;;;;4988669;28;20549;-66
2021/01/20 05:01:25;;;;;;;7.97;7.17;;;3.20;99.90;;;;;;4988225;28;20195;-65
2021/01/20 05:03:53;;;;;;;6.55;5.80;;;3.20;99.90;;;;;;4986639;28;20187;-65
2021/01/20 05:06:19;;;;;;;8.00;6.32;;;3.10;99.90;;;;;;4986963;28;20261;-65
2021/01/20 05:08:44;;;;;;;7.97;6.50;;;3.10;99.90;;;;;;4988274;28;20207;-65
2021/01/20 05:11:10;;;;;;;10.10;8.67;;;3.10;99.90;;;;;;4987565;28;20250;-64
2021/01/20 05:13:35;;;;;;;8.83;6.87;;;3.10;99.90;;;;;;4988151;28;20178;-65
2021/01/20 05:16:01;;;;;;;7.47;6.50;;;3.10;99.90;;;;;;4988126;28;20194;-65
2021/01/20 05:18:27;;;;;;;8.37;7.43;;;3.10;99.90;;;;;;4979508;28;20613;-65
2021/01/20 05:20:53;;;;;;;8.90;7.00;;;3.10;99.90;;;;;;4979131;28;20215;-65
2021/01/20 05:23:25;;;;;;;7.40;6.33;;;3.10;99.90;;;;;;4977972;28;20202;-65
2021/01/20 05:25:51;;;;;;;6.38;5.78;;;3.20;99.90;;;;;;4979062;28;20435;-65
2021/01/20 05:28:16;;;;;;;7.63;6.33;;;3.20;99.90;;;;;;4978192;28;20262;-65
2021/01/20 05:30:49;;;;;;;7.00;6.30;;;3.20;99.90;;;;;;4979522;28;20462;-65
2021/01/20 05:33:16;;;;;;;6.40;5.22;;;3.20;99.80;;;;;;4979288;28;20183;-64
2021/01/20 05:35:44;;;;;;;5.88;4.93;;;3.20;99.00;;;;;;4992662;28;20621;-64
2021/01/20 05:38:10;;;;;;;5.75;4.70;;;3.40;99.10;;;;;;4981984;28;20529;-64
2021/01/20 05:40:36;;;;;;;6.05;5.13;;;3.50;96.20;;;;;;4987268;28;20235;-64
2021/01/20 05:43:03;;;;;;;5.80;5.30;;;3.50;93.30;;;;;;4988853;28;20188;-66
2021/01/20 05:45:29;;;;;;;6.10;5.50;;;3.60;88.40;;;;;;4988385;28;20242;-64
2021/01/20 05:48:07;;;;;;;5.77;5.10;;;3.60;90.10;;;;;;4986781;28;20772;-64
2021/01/20 05:50:33;;;;;;;10.10;6.60;;;3.70;88.20;;;;;;4988175;28;20234;-64
2021/01/20 05:53:09;;;;;;;6.35;5.75;;;3.70;85.20;;;;;;4989311;28;20172;-66
2021/01/20 05:55:37;;;;;;;7.28;5.60;;;3.70;84.00;;;;;;4992500;28;20242;-65
2021/01/20 05:58:03;;;;;;;5.47;4.95;;;3.70;82.80;;;;;;4991741;28;20188;-65
2021/01/20 06:00:29;;;;;;;5.65;5.10;;;3.70;84.20;;;;;;4990091;28;20270;-68
2021/01/20 06:02:56;;;;;;;6.50;5.23;;;3.70;81.10;;;;;;4991659;28;20637;-65
2021/01/20 06:05:22;;;;;;;6.22;5.25;;;3.80;78.50;;;;;;4992418;28;20412;-65
2021/01/20 06:07:52;;;;;;;6.10;5.20;;;3.90;78.90;;;;;;4990196;28;20195;-65
2021/01/20 06:10:19;;;;;;;5.10;4.60;;;3.90;75.60;;;;;;4991641;28;20511;-65
2021/01/20 06:12:45;;;;;;;4.60;4.20;;;4.00;72.60;;;;;;4991812;28;20235;-65
2021/01/20 06:15:12;;;;;;;5.30;4.20;;;4.00;68.20;;;;;;4990447;28;20638;-65
2021/01/20 06:17:43;;;;;;;3.92;3.53;;;4.10;59.80;;;;;;4991519;28;20781;-65
2021/01/20 06:20:10;;;;;;;9.60;8.38;;;4.20;50.40;;;;;;4992146;28;20214;-65
2021/01/20 06:22:45;;;;;;;20.88;18.60;;;4.30;45.20;;;;;;4990334;28;20172;-65
2021/01/20 06:25:21;;;;;;;9.27;7.00;;;4.30;44.70;;;;;;4991630;28;20210;-65
2021/01/20 06:28:03;;;;;;;3.63;3.17;;;4.40;35.20;;;;;;4989434;28;20176;-65
2021/01/20 06:30:41;;;;;;;4.75;2.30;;;4.50;24.60;;;;;;4991885;28;20191;-65
2021/01/20 06:33:11;;;;;;;4.57;4.22;;;4.70;5.80;;;;;;4979064;28;20530;-65
2021/01/20 06:35:44;;;;;;;3.03;2.80;;;4.90;1.70;;;;;;4990674;28;20180;-66
2021/01/20 06:38:28;;;;;;;3.00;2.75;;;4.90;1.00;;;;;;4988755;28;20199;-65
2021/01/20 06:40:58;;;;;;;2.45;2.25;;;5.00;1.00;;;;;;4985183;28;20578;-65
2021/01/20 06:43:44;;;;;;;2.08;1.98;;;5.20;1.00;;;;;;4990414;28;20187;-65
2021/01/20 06:46:17;;;;;;;2.10;2.00;;;5.30;1.00;;;;;;4989796;28;20176;-65
2021/01/20 06:48:55;;;;;;;2.88;2.42;;;5.40;1.00;;;;;;4990622;28;20226;-66
2021/01/20 06:51:27;;;;;;;2.80;2.60;;;5.40;1.00;;;;;;4989328;28;20218;-65
2021/01/20 06:54:06;;;;;;;4.50;4.10;;;5.50;1.00;;;;;;4990996;28;20215;-65
2021/01/20 06:56:43;;;;;;;3.08;2.50;;;5.60;1.00;;;;;;4991036;28;20187;-65
2021/01/20 06:59:22;;;;;;;2.58;2.38;;;5.70;1.00;;;;;;4988641;28;20825;-65
2021/01/20 07:02:04;;;;;;;6.03;2.80;;;5.70;1.00;;;;;;4988617;28;20210;-65
2021/01/20 07:04:38;;;;;;;2.15;1.98;;;5.90;1.00;;;;;;5011049;28;20227;-64
2021/01/20 07:07:09;;;;;;;3.40;3.10;;;5.90;1.00;;;;;;4990096;28;20187;-67
2021/01/20 07:09:57;;;;;;;2.22;2.08;;;6.00;1.00;;;;;;4990743;28;20192;-64
2021/01/20 07:12:24;;;;;;;2.55;2.33;;;6.10;1.00;;;;;;4992911;28;20243;-64
2021/01/20 07:14:51;;;;;;;2.05;1.90;;;6.20;1.00;;;;;;4989871;28;20184;-65
2021/01/20 07:17:17;;;;;;;1.77;1.67;;;6.30;1.00;;;;;;4989601;28;20183;-65
2021/01/20 07:19:45;;;;;;;1.63;1.52;;;6.50;1.00;;;;;;4989709;28;20284;-64
2021/01/20 07:22:12;;;;;;;1.90;1.60;;;6.80;1.00;;;;;;4989827;28;20582;-65
2021/01/20 07:24:37;;;;;;;2.00;1.90;;;7.00;25.30;;;;;;4989373;28;20184;-65
2021/01/20 07:27:08;;;;;;;2.27;2.07;;;7.10;1.00;;;;;;4989822;28;20883;-65
2021/01/20 07:29:35;;;;;;;1.88;1.77;;;7.20;1.00;;;;;;4989851;28;20204;-64
2021/01/20 07:32:01;;;;;;;2.17;1.97;;;7.20;4.20;;;;;;4990493;28;20206;-64
2021/01/20 07:34:41;;;;;;;2.20;2.00;;;7.30;1.00;;;;;;4988006;28;20524;-65
2021/01/20 07:37:09;;;;;;;2.20;2.10;;;7.30;1.00;;;;;;4982937;28;20428;-65
2021/01/20 07:39:35;;;;;;;2.00;1.80;;;7.30;99.90;;;;;;4989040;28;20460;-64
2021/01/20 07:42:00;;;;;;;2.10;1.90;;;7.30;99.90;;;;;;4987353;28;20638;-64
2021/01/20 07:44:27;;;;;;;2.50;2.00;;;7.30;99.90;;;;;;4988828;28;20429;-65
2021/01/20 07:47:07;;;;;;;1.70;1.60;;;7.40;99.90;;;;;;5019788;28;20874;-64
2021/01/20 07:49:34;;;;;;;2.13;1.97;;;7.80;92.80;;;;;;4983079;28;20418;-66
2021/01/20 07:52:03;;;;;;;2.50;1.63;;;8.10;1.00;;;;;;4984624;28;20528;-66
2021/01/20 07:54:38;;;;;;;2.00;1.90;;;8.20;99.90;;;;;;4979228;28;20378;-66
2021/01/20 07:57:06;;;;;;;1.97;1.87;;;8.30;1.00;;;;;;4987857;28;20437;-66
2021/01/20 07:59:32;;;;;;;2.53;2.33;;;8.50;93.10;;;;;;4986789;28;21167;-66
2021/01/20 08:02:11;;;;;;;2.50;2.30;;;8.80;99.90;;;;;;4988292;28;20426;-66
2021/01/20 08:04:37;;;;;;;2.80;2.60;;;8.80;68.60;;;;;;4988866;28;21246;-66
2021/01/20 08:07:04;;;;;;;3.03;2.83;;;8.60;1.00;;;;;;4987657;28;20469;-66
2021/01/20 08:09:41;;;;;;;2.70;2.50;;;8.40;1.00;;;;;;4987727;28;20420;-66
2021/01/20 08:12:09;;;;;;;4.53;3.10;;;8.30;99.90;;;;;;4987674;28;20466;-66
2021/01/20 08:14:36;;;;;;;3.03;2.73;;;8.20;99.90;;;;;;4988661;28;20426;-66
2021/01/20 08:17:03;;;;;;;4.97;2.57;;;8.00;1.00;;;;;;4988977;28;20516;-66
2021/01/20 08:19:31;;;;;;;4.73;2.80;;;8.00;1.00;;;;;;4987218;28;20932;-67
2021/01/20 08:21:58;;;;;;;2.30;2.10;;;8.10;99.90;;;;;;4989190;28;20425;-66
2021/01/20 08:24:24;;;;;;;2.67;2.47;;;8.10;99.90;;;;;;4984442;28;20442;-66
2021/01/20 08:27:00;;;;;;;3.00;2.80;;;8.30;1.00;;;;;;4988142;28;20430;-66
2021/01/20 08:29:27;;;;;;;2.70;2.50;;;8.40;1.00;;;;;;4989053;28;20453;-66
2021/01/20 08:32:12;;;;;;;2.80;2.60;;;8.40;1.00;;;;;;4981461;28;20466;-65
2021/01/20 08:34:39;;;;;;;2.30;2.20;;;8.30;1.00;;;;;;4982372;28;20481;-66
2021/01/20 08:37:10;;;;;;;2.50;2.30;;;8.60;99.90;;;;;;4969558;28;20418;-66
2021/01/20 08:39:37;;;;;;;2.40;2.23;;;8.70;99.90;;;;;;4978803;28;20912;-66
2021/01/20 08:42:36;;;;;;;2.43;2.23;;;8.90;1.00;;;;;;4988863;28;20935;-67
2021/01/20 08:45:08;;;;;;;2.70;2.50;;;8.90;1.00;;;;;;4987823;28;20775;-66
2021/01/20 08:47:35;;;;;;;3.07;2.77;;;9.00;1.00;;;;;;4989042;28;20454;-65
2021/01/20 08:50:02;;;;;;;3.13;2.93;;;9.00;1.00;;;;;;4986713;28;20749;-67
2021/01/20 08:52:41;;;;;;;2.67;2.47;;;9.10;1.00;;;;;;4988072;28;20800;-67
2021/01/20 08:55:09;;;;;;;3.70;3.40;;;9.20;1.00;;;;;;4988140;28;20461;-67
2021/01/20 08:57:34;;;;;;;4.10;3.70;;;9.30;1.00;;;;;;4988399;28;20410;-67
2021/01/20 09:00:00;;;;;;;3.87;3.03;;;9.30;1.00;;;;;;4989609;28;20426;-67
2021/01/20 09:02:26;;;;;;;3.47;3.17;;;9.30;1.00;;;;;;4987651;28;20282;-67
2021/01/20 09:04:52;;;;;;;3.57;3.27;;;9.40;1.00;;;;;;4987716;28;20188;-66
2021/01/20 09:07:18;;;;;;;3.40;3.10;;;9.50;1.00;;;;;;4988518;28;20434;-67
2021/01/20 09:09:44;;;;;;;2.57;2.37;;;9.60;1.00;;;;;;4986270;28;20446;-66
2021/01/20 09:12:11;;;;;;;3.13;2.87;;;9.50;1.00;;;;;;4988409;28;20212;-67
2021/01/20 09:14:38;;;;;;;4.90;4.40;;;9.60;1.00;;;;;;4988132;28;20184;-67
2021/01/20 09:17:05;;;;;;;5.13;4.60;;;9.40;99.90;;;;;;4978166;28;20444;-65
2021/01/20 09:19:31;;;;;;;5.83;4.73;;;9.20;1.00;;;;;;4987910;28;20494;-67
2021/01/20 09:21:57;;;;;;;4.17;3.87;;;9.00;1.00;;;;;;4987961;28;20477;-67
2021/01/20 09:24:23;;;;;;;5.40;4.90;;;8.60;99.90;;;;;;4984096;28;20525;-67
2021/01/20 09:26:48;;;;;;;4.60;4.20;;;8.50;73.80;;;;;;4994952;28;20552;-65
2021/01/20 09:29:14;;;;;;;4.63;4.20;;;8.40;1.00;;;;;;4991851;28;20210;-65
2021/01/20 09:31:40;;;;;;;7.50;4.10;;;8.50;11.70;;;;;;4991171;28;20567;-66
2021/01/20 09:34:08;;;;;;;4.53;4.13;;;8.50;1.00;;;;;;4991340;28;20183;-65
2021/01/20 09:36:34;;;;;;;4.90;4.20;;;8.40;99.90;;;;;;4982726;28;20199;-65
2021/01/20 09:39:00;;;;;;;4.90;3.90;;;8.50;1.00;;;;;;4989158;28;20517;-66
2021/01/20 09:41:26;;;;;;;4.50;4.10;;;8.50;99.90;;;;;;4990820;28;20467;-66
2021/01/20 09:43:53;;;;;;;6.07;4.57;;;8.50;99.90;;;;;;4991368;28;20199;-67
2021/01/20 09:46:22;;;;;;;3.90;3.60;;;8.50;1.00;;;;;;4992151;28;20542;-66
2021/01/20 09:48:48;;;;;;;4.17;3.50;;;8.60;1.00;;;;;;4982471;28;20629;-65
2021/01/20 09:51:14;;;;;;;4.77;4.00;;;8.60;54.60;;;;;;4991293;28;21276;-66
2021/01/20 09:53:40;;;;;;;3.93;3.63;;;8.70;1.00;;;;;;4991549;28;20411;-66
2021/01/20 09:56:07;;;;;;;4.20;3.90;;;8.70;1.00;;;;;;4989802;28;20462;-65
2021/01/20 09:58:45;;;;;;;4.70;4.30;;;8.50;99.90;;;;;;4990898;28;20441;-66
2021/01/20 10:01:11;;;;;;;4.00;3.70;;;8.60;99.90;;;;;;4991789;28;20442;-65
2021/01/20 10:03:36;;;;;;;4.83;3.97;;;8.60;1.00;;;;;;4990906;28;20449;-66
2021/01/20 10:06:02;;;;;;;4.30;3.90;;;8.60;99.90;;;;;;4991060;28;20458;-65
2021/01/20 10:08:28;;;;;;;4.83;4.40;;;8.60;1.00;;;;;;4990108;28;20183;-66
2021/01/20 10:10:53;;;;;;;5.60;4.07;;;8.40;99.90;;;;;;4990887;28;20238;-66
2021/01/20 10:13:22;;;;;;;4.53;4.13;;;8.50;1.00;;;;;;4986639;28;20180;-66
2021/01/20 10:15:48;;;;;;;4.80;4.30;;;8.80;1.00;;;;;;5009279;28;20184;-64
2021/01/20 10:18:14;;;;;;;4.53;4.23;;;9.40;52.20;;;;;;4979809;28;20444;-65
2021/01/20 10:20:39;;;;;;;4.30;3.90;;;9.90;1.00;;;;;;4987891;28;20474;-64
2021/01/20 10:23:08;;;;;;;4.40;4.00;;;10.40;1.00;;;;;;4990158;28;20191;-64
2021/01/20 10:25:34;;;;;;;4.83;4.37;;;10.90;99.90;;;;;;4990792;28;20200;-64
2021/01/20 10:28:00;;;;;;;4.67;4.20;;;11.30;57.20;;;;;;4989769;28;21125;-65
2021/01/20 10:30:29;;;;;;;6.40;4.13;;;11.50;1.00;;;;;;4990731;28;20203;-64
2021/01/20 10:32:55;;;;;;;5.23;4.23;;;11.60;1.00;;;;;;4989507;28;20419;-64
2021/01/20 10:35:21;;;;;;;4.87;4.37;;;11.50;1.00;;;;;;4991187;28;20446;-63
2021/01/20 10:37:48;;;;;;;4.40;4.10;;;11.30;1.00;;;;;;4989508;28;20184;-63
2021/01/20 10:40:14;;;;;;;4.70;4.30;;;10.90;1.00;;;;;;4990024;28;20495;-65
2021/01/20 10:42:40;;;;;;;4.47;3.73;;;10.40;1.00;;;;;;4989856;28;20798;-63
2021/01/20 10:45:06;;;;;;;4.90;4.40;;;10.00;1.00;;;;;;4986802;28;20546;-64
2021/01/20 10:47:32;;;;;;;4.30;3.90;;;9.80;99.90;;;;;;4983418;28;20455;-64
2021/01/20 10:49:59;;;;;;;3.83;3.47;;;9.70;99.90;;;;;;4971794;28;20744;-65
2021/01/20 10:52:25;;;;;;;4.90;4.00;;;9.60;99.90;;;;;;4991142;28;20420;-64
2021/01/20 10:54:50;;;;;;;4.00;3.60;;;9.50;99.90;;;;;;4990253;28;21399;-63
2021/01/20 10:57:16;;;;;;;4.50;4.00;;;9.40;1.00;;;;;;4989032;28;20203;-64
2021/01/20 10:59:42;;;;;;;11.13;6.43;;;9.40;1.00;;;;;;4990412;28;20310;-64
2021/01/20 11:02:11;;;;;;;5.07;4.50;;;9.50;14.00;;;;;;4988872;28;20216;-65
2021/01/20 11:04:38;;;;;;;4.40;3.83;;;9.50;1.00;;;;;;4977978;28;20230;-64
2021/01/20 11:07:03;;;;;;;4.63;3.60;;;9.60;22.80;;;;;;4989194;28;20492;-63
2021/01/20 11:09:30;;;;;;;6.53;4.50;;;9.70;1.00;;;;;;4988670;28;20418;-64
2021/01/20 11:11:57;;;;;;;4.60;3.90;;;9.70;99.90;;;;;;4990141;28;20622;-64
2021/01/20 11:14:23;;;;;;;5.10;4.40;;;9.90;1.00;;;;;;4985692;28;20927;-63
2021/01/20 11:16:53;;;;;;;4.30;3.90;;;10.20;99.90;;;;;;4990341;28;20519;-64
2021/01/20 11:19:19;;;;;;;4.30;3.90;;;10.60;99.90;;;;;;4988977;28;20515;-64
2021/01/20 11:21:45;;;;;;;4.93;4.13;;;11.00;1.00;;;;;;4988470;28;20487;-64
2021/01/20 11:24:10;;;;;;;5.20;4.30;;;11.40;1.00;;;;;;4987468;28;20519;-65
2021/01/20 11:26:36;;;;;;;4.67;4.23;;;11.50;1.00;;;;;;4987843;28;20595;-65
2021/01/20 11:29:02;;;;;;;4.10;3.70;;;11.60;1.00;;;;;;4988629;28;20223;-65
2021/01/20 11:31:28;;;;;;;4.50;4.10;;;11.80;1.00;;;;;;4989840;28;20203;-63
2021/01/20 11:33:54;;;;;;;4.30;3.63;;;11.90;1.00;;;;;;4989111;28;20451;-64
2021/01/20 11:36:20;;;;;;;3.90;3.60;;;11.90;1.00;;;;;;4981044;28;20188;-65
2021/01/20 11:38:45;;;;;;;5.30;4.30;;;11.80;1.00;;;;;;4988920;28;20866;-64
2021/01/20 11:41:11;;;;;;;5.97;4.40;;;11.90;1.00;;;;;;4987479;28;20485;-64
2021/01/20 11:43:37;;;;;;;5.10;4.17;;;12.10;1.00;;;;;;4989895;28;20184;-64
2021/01/20 11:46:03;;;;;;;4.40;4.00;;;12.20;1.00;;;;;;4988462;28;20263;-65
2021/01/20 11:48:29;;;;;;;5.33;4.43;;;12.30;1.00;;;;;;4987682;28;20196;-64
2021/01/20 11:50:54;;;;;;;4.60;4.20;;;12.40;1.00;;;;;;4986263;28;20500;-64
2021/01/20 11:53:21;;;;;;;5.37;4.17;;;12.40;1.00;;;;;;4989694;28;20250;-65
2021/01/20 11:55:47;;;;;;;6.63;4.40;;;12.40;1.00;;;;;;4989470;28;20279;-65
2021/01/20 11:58:12;;;;;;;4.20;3.90;;;12.40;1.00;;;;;;4987819;28;20435;-64
2021/01/20 12:00:38;;;;;;;4.40;4.07;;;12.70;1.00;;;;;;4988999;28;20195;-64
2021/01/20 12:03:04;;;;;;;4.03;3.67;;;12.90;1.00;;;;;;4989840;28;20986;-64
2021/01/20 12:05:30;;;;;;;4.33;3.93;;;13.20;1.00;;;;;;4985085;28;20184;-64
2021/01/20 12:07:55;;;;;;;4.43;4.03;;;13.30;99.90;;;;;;4985684;28;20442;-64
2021/01/20 12:10:21;;;;;;;4.93;4.23;;;13.30;99.90;;;;;;4987730;28;20234;-64
2021/01/20 12:12:46;;;;;;;5.67;5.17;;;13.40;99.90;;;;;;4987035;28;20188;-64
2021/01/20 12:15:12;;;;;;;5.77;5.17;;;13.40;99.90;;;;;;4970056;28;20193;-63
2021/01/20 12:17:38;;;;;;;5.13;4.70;;;13.00;99.90;;;;;;4976391;28;20193;-63
2021/01/20 12:20:06;;;;;;;5.50;5.00;;;12.60;1.00;;;;;;4984754;28;20227;-63
2021/01/20 12:22:32;;;;;;;5.73;4.60;;;12.30;1.00;;;;;;4988727;28;20990;-63
2021/01/20 12:24:57;;;;;;;4.80;4.30;;;12.40;1.00;;;;;;4988977;28;20419;-63
2021/01/20 12:27:23;;;;;;;5.97;5.47;;;12.10;1.00;;;;;;4988889;28;20230;-64
2021/01/20 12:29:48;;;;;;;5.77;4.80;;;11.70;1.00;;;;;;4974796;28;20216;-64
2021/01/20 12:32:14;;;;;;;4.77;4.37;;;11.40;1.00;;;;;;4981815;28;20580;-64
2021/01/20 12:34:40;;;;;;;4.97;4.43;;;11.30;1.00;;;;;;4990066;28;20180;-65
2021/01/20 12:37:05;;;;;;;5.13;4.27;;;11.10;1.00;;;;;;4990169;28;20192;-65
2021/01/20 12:39:31;;;;;;;6.20;4.70;;;10.90;1.00;;;;;;4977019;28;20195;-63
2021/01/20 12:41:57;;;;;;;4.97;4.47;;;10.80;1.00;;;;;;4980024;28;20675;-64
2021/01/20 12:44:22;;;;;;;5.70;4.87;;;10.60;1.00;;;;;;4996006;28;20191;-64
2021/01/20 12:46:48;;;;;;;4.80;4.40;;;10.50;1.00;;;;;;4980660;28;20270;-64
2021/01/20 12:49:14;;;;;;;6.03;4.83;;;10.40;1.00;;;;;;4989074;28;20246;-64
2021/01/20 12:51:39;;;;;;;7.57;6.50;;;10.30;1.00;;;;;;4988891;28;20619;-64
2021/01/20 12:54:05;;;;;;;5.10;4.60;;;10.10;14.30;;;;;;4985041;28;20569;-64
2021/01/20 12:56:31;;;;;;;5.63;4.57;;;9.90;99.90;;;;;;4986517;28;20184;-63
2021/01/20 12:58:57;;;;;;;6.17;4.87;;;9.90;46.80;;;;;;4987493;28;20481;-64
2021/01/20 13:01:23;;;;;;;6.10;5.03;;;9.70;1.00;;;;;;4989730;28;20904;-64
2021/01/20 13:03:49;;;;;;;5.43;4.40;;;9.70;99.90;;;;;;4991822;28;20530;-63